Time;durP1;ratioP1;P1;durP2;ratioP2;P2;SDS_P1;SDS_P2;PMS_P1;PMS_P2;Temp;Humidity;BMP_temperature;BMP_pressure;BME280_temperature;BME280_humidity;BME280_pressure;Samples;Min_cycle;Max_cycle;Signal;HPM_P1;HPM_P2
2022/11/01 00:01:43;;;;;;;37.60;17.83;;;13.00;99.90;;;;;;5137418;27;20418;-72
2022/11/01 00:04:09;;;;;;;45.50;18.23;;;13.10;99.90;;;;;;5136916;27;20247;-75
2022/11/01 00:06:35;;;;;;;39.20;17.67;;;13.10;99.90;;;;;;5118748;27;20521;-75
2022/11/01 00:09:01;;;;;;;38.37;17.53;;;13.00;99.90;;;;;;5136849;27;20215;-75
2022/11/01 00:11:27;;;;;;;42.13;19.97;;;13.10;99.90;;;;;;5137133;27;20836;-75
2022/11/01 00:13:53;;;;;;;38.23;17.00;;;13.00;99.90;;;;;;5136950;27;20404;-71
2022/11/01 00:16:19;;;;;;;35.93;17.03;;;13.00;99.90;;;;;;5118293;27;20597;-72
2022/11/01 00:18:46;;;;;;;39.20;17.63;;;13.00;99.90;;;;;;5118452;27;20266;-72
2022/11/01 00:21:13;;;;;;;42.50;17.80;;;13.00;99.90;;;;;;5136755;27;20434;-71
2022/11/01 00:23:39;;;;;;;53.93;21.30;;;13.00;99.90;;;;;;5136670;27;20433;-72
2022/11/01 00:26:05;;;;;;;43.03;19.23;;;13.00;99.90;;;;;;5114455;28;20837;-71
2022/11/01 00:28:32;;;;;;;40.17;19.17;;;13.00;99.90;;;;;;5114629;28;20546;-75
2022/11/01 00:30:59;;;;;;;39.37;17.60;;;13.00;99.90;;;;;;5116162;28;20490;-71
2022/11/01 00:33:25;;;;;;;48.27;18.00;;;12.90;99.90;;;;;;5114655;28;20455;-75
2022/11/01 00:35:51;;;;;;;47.47;20.37;;;12.90;99.90;;;;;;5116026;28;20439;-71
2022/11/01 00:38:18;;;;;;;41.50;18.17;;;12.90;99.90;;;;;;5114420;28;20408;-74
2022/11/01 00:40:44;;;;;;;44.17;17.60;;;12.90;99.90;;;;;;5114454;28;20443;-75
2022/11/01 00:43:10;;;;;;;47.10;19.10;;;12.90;99.90;;;;;;5115733;28;20408;-75
2022/11/01 00:45:37;;;;;;;47.63;19.80;;;12.90;99.90;;;;;;5114260;28;20444;-74
2022/11/01 00:48:02;;;;;;;54.73;21.20;;;12.90;99.90;;;;;;5115524;28;20453;-71
2022/11/01 00:50:28;;;;;;;52.00;19.87;;;12.90;99.90;;;;;;5115511;28;20952;-75
2022/11/01 00:52:54;;;;;;;59.17;22.60;;;12.90;99.90;;;;;;5115593;28;20632;-72
2022/11/01 00:55:19;;;;;;;52.33;21.07;;;12.90;99.90;;;;;;5115291;28;20274;-75
2022/11/01 00:57:45;;;;;;;50.43;20.10;;;12.90;99.90;;;;;;5115502;28;20645;-72
2022/11/01 01:00:13;;;;;;;48.40;21.60;;;12.90;99.90;;;;;;5114023;28;20564;-72
2022/11/01 01:02:39;;;;;;;52.00;21.17;;;12.90;99.90;;;;;;5114065;28;20198;-75
2022/11/01 01:05:06;;;;;;;52.43;22.27;;;12.90;99.90;;;;;;5115354;28;20444;-71
2022/11/01 01:07:31;;;;;;;57.40;21.77;;;12.90;99.90;;;;;;5113893;28;20427;-72
2022/11/01 01:09:57;;;;;;;41.93;18.30;;;12.90;99.90;;;;;;5113637;28;20468;-72
2022/11/01 01:12:22;;;;;;;46.23;17.70;;;12.90;99.90;;;;;;5115664;28;20176;-72
2022/11/01 01:14:48;;;;;;;42.70;20.90;;;12.90;99.90;;;;;;5113766;28;20742;-75
2022/11/01 01:17:14;;;;;;;44.40;18.83;;;12.90;99.90;;;;;;5115552;28;20179;-72
2022/11/01 01:19:40;;;;;;;47.23;19.00;;;12.90;99.90;;;;;;5114981;28;20223;-72
2022/11/01 01:22:05;;;;;;;46.17;20.40;;;12.80;99.90;;;;;;5113833;28;20458;-76
2022/11/01 01:24:31;;;;;;;41.80;19.40;;;12.80;99.90;;;;;;5114987;28;20215;-76
2022/11/01 01:26:57;;;;;;;43.20;18.90;;;12.80;99.90;;;;;;5113909;28;20680;-75
2022/11/01 01:29:23;;;;;;;38.70;18.10;;;12.80;99.90;;;;;;5114673;28;20467;-72
2022/11/01 01:31:49;;;;;;;36.63;17.33;;;12.70;99.90;;;;;;5115157;28;20252;-72
2022/11/01 01:34:16;;;;;;;39.63;17.73;;;12.70;99.90;;;;;;5112877;28;20176;-75
2022/11/01 01:36:41;;;;;;;39.47;17.47;;;12.70;99.90;;;;;;5113808;28;20537;-75
2022/11/01 01:39:07;;;;;;;41.77;20.00;;;12.70;99.90;;;;;;5113234;28;20499;-75
2022/11/01 01:44:46;;;;;;;41.97;18.57;;;12.60;99.90;;;;;;5114815;28;20484;-75
2022/11/01 01:47:25;;;;;;;40.77;18.20;;;12.60;99.90;;;;;;5114448;28;20443;-75
2022/11/01 01:50:02;;;;;;;41.20;19.57;;;12.60;99.90;;;;;;5114430;28;20864;-71
2022/11/01 01:52:32;;;;;;;42.63;19.17;;;12.50;99.90;;;;;;5113429;28;20434;-72
2022/11/01 01:55:01;;;;;;;35.63;16.10;;;12.50;99.90;;;;;;5113110;28;20511;-72
2022/11/01 01:57:27;;;;;;;37.77;20.03;;;12.50;99.90;;;;;;5113418;28;20507;-72
2022/11/01 01:59:52;;;;;;;42.63;17.90;;;12.50;99.90;;;;;;5114322;28;20518;-71
2022/11/01 02:02:20;;;;;;;44.07;18.27;;;12.50;99.90;;;;;;5114931;28;20525;-72
2022/11/01 02:04:57;;;;;;;38.27;18.90;;;12.50;99.90;;;;;;5114342;28;20211;-72
2022/11/01 02:07:24;;;;;;;38.73;18.77;;;12.50;99.90;;;;;;5113256;28;20463;-72
2022/11/01 02:09:50;;;;;;;40.83;18.03;;;12.50;99.90;;;;;;5114124;28;20482;-75
2022/11/01 02:12:16;;;;;;;50.30;19.53;;;12.50;99.90;;;;;;5114731;28;20412;-75
2022/11/01 02:14:44;;;;;;;41.50;21.30;;;12.50;99.90;;;;;;5112914;28;20440;-75
2022/11/01 02:17:46;;;;;;;37.63;17.37;;;12.50;99.90;;;;;;5114720;28;20850;-76
2022/11/01 02:20:39;;;;;;;46.03;18.70;;;12.50;99.90;;;;;;5113965;28;20939;-75
2022/11/01 02:23:33;;;;;;;38.70;18.27;;;12.50;99.90;;;;;;5114132;28;20412;-75
2022/11/01 02:26:17;;;;;;;42.63;18.90;;;12.60;99.90;;;;;;5123033;28;20474;-72
2022/11/01 02:29:08;;;;;;;40.47;18.37;;;12.60;99.90;;;;;;5116047;28;20463;-72
2022/11/01 02:31:50;;;;;;;38.80;17.83;;;12.60;99.90;;;;;;5116332;28;20427;-72
2022/11/01 02:34:30;;;;;;;34.70;17.97;;;12.60;99.90;;;;;;5117237;28;20896;-72
2022/11/01 02:37:10;;;;;;;40.70;19.57;;;12.60;99.90;;;;;;5116255;28;20419;-75
2022/11/01 02:39:43;;;;;;;37.27;16.33;;;12.60;99.90;;;;;;5134551;28;20419;-75
2022/11/01 02:42:31;;;;;;;41.57;17.07;;;12.60;99.90;;;;;;5134428;28;20415;-75
2022/11/01 02:45:05;;;;;;;36.80;17.47;;;12.60;99.90;;;;;;5134427;27;20431;-72
2022/11/01 02:47:32;;;;;;;36.23;16.50;;;12.60;99.90;;;;;;5138579;27;20407;-71
2022/11/01 02:50:03;;;;;;;41.83;18.50;;;12.60;99.90;;;;;;5138464;27;20519;-72
2022/11/01 02:52:31;;;;;;;39.27;16.30;;;12.60;99.90;;;;;;5138431;27;20883;-71
2022/11/01 02:54:59;;;;;;;31.53;15.97;;;12.70;99.90;;;;;;5119820;27;20445;-75
2022/11/01 02:57:31;;;;;;;35.80;18.33;;;12.70;99.90;;;;;;5138883;27;20418;-71
2022/11/01 03:00:03;;;;;;;41.20;18.00;;;12.70;99.90;;;;;;5119811;27;20453;-75
2022/11/01 03:02:40;;;;;;;40.93;17.60;;;12.70;99.90;;;;;;5138391;27;20417;-72
2022/11/01 03:05:08;;;;;;;37.07;16.30;;;12.70;99.90;;;;;;5138021;27;20869;-71
2022/11/01 03:07:33;;;;;;;39.27;18.13;;;12.70;99.90;;;;;;5138227;27;20432;-75
2022/11/01 03:10:00;;;;;;;40.00;17.53;;;12.70;99.90;;;;;;5138049;27;21028;-72
2022/11/01 03:12:31;;;;;;;36.03;16.30;;;12.70;99.90;;;;;;5119487;27;20644;-75
2022/11/01 03:15:07;;;;;;;29.50;16.80;;;12.70;99.90;;;;;;5137959;27;20431;-75
2022/11/01 03:17:43;;;;;;;35.30;17.70;;;12.60;99.90;;;;;;5119497;27;20430;-72
2022/11/01 03:20:21;;;;;;;37.27;17.43;;;12.60;99.90;;;;;;5119403;27;20596;-73
2022/11/01 03:22:55;;;;;;;40.47;18.93;;;12.60;99.90;;;;;;5119448;27;20835;-75
2022/11/01 03:25:38;;;;;;;33.57;17.83;;;12.60;99.90;;;;;;5137454;27;20462;-75
2022/11/01 03:28:19;;;;;;;39.07;18.67;;;12.60;99.90;;;;;;5137711;27;20805;-72
2022/11/01 03:30:50;;;;;;;35.40;14.73;;;12.60;99.90;;;;;;5119312;27;20453;-72
2022/11/01 03:33:17;;;;;;;36.33;17.60;;;12.60;99.90;;;;;;5137634;27;20400;-75
2022/11/01 03:35:47;;;;;;;37.60;18.33;;;12.60;99.90;;;;;;5137664;27;20438;-72
2022/11/01 03:38:20;;;;;;;27.97;15.83;;;12.50;99.90;;;;;;5119150;27;20415;-72
2022/11/01 03:41:00;;;;;;;28.77;14.67;;;12.50;99.90;;;;;;5137569;27;20434;-72
2022/11/01 03:43:28;;;;;;;34.20;15.47;;;12.50;99.90;;;;;;5119044;27;20414;-72
2022/11/01 03:45:54;;;;;;;27.43;14.90;;;12.40;99.90;;;;;;5137405;27;20443;-75
2022/11/01 03:48:19;;;;;;;29.43;15.50;;;12.40;99.90;;;;;;5137232;27;20476;-75
2022/11/01 03:50:50;;;;;;;32.23;15.30;;;12.40;99.90;;;;;;5137402;27;20401;-75
2022/11/01 03:53:16;;;;;;;37.60;17.30;;;12.30;99.90;;;;;;5118883;27;20175;-75
2022/11/01 03:55:42;;;;;;;29.93;15.17;;;12.30;99.90;;;;;;5137203;27;20526;-72
2022/11/01 03:58:08;;;;;;;34.63;16.13;;;12.30;99.90;;;;;;5118355;27;20186;-75
2022/11/01 04:00:40;;;;;;;31.87;15.93;;;12.30;99.90;;;;;;5118631;27;20442;-72
2022/11/01 04:03:07;;;;;;;37.00;16.70;;;12.30;99.90;;;;;;5118778;27;20984;-72
2022/11/01 04:05:34;;;;;;;33.90;16.30;;;12.30;99.90;;;;;;5136952;27;20423;-72
2022/11/01 04:07:59;;;;;;;33.83;16.03;;;12.30;99.90;;;;;;5118599;27;20955;-75
2022/11/01 04:10:26;;;;;;;31.83;16.27;;;12.30;99.90;;;;;;5136975;27;20479;-71
2022/11/01 04:12:52;;;;;;;33.90;15.80;;;12.30;99.90;;;;;;5118579;27;20171;-71
2022/11/01 04:21:15;;;;;;;30.60;16.23;;;12.40;99.90;;;;;;5137077;27;20508;-75
2022/11/01 04:23:42;;;;;;;35.80;15.63;;;12.30;99.90;;;;;;5136774;27;20879;-72
2022/11/01 04:26:12;;;;;;;39.37;16.20;;;12.40;99.90;;;;;;5136657;27;20470;-71
2022/11/01 04:28:37;;;;;;;33.60;15.70;;;12.40;99.90;;;;;;5117996;27;20459;-75
2022/11/01 04:31:04;;;;;;;33.40;15.10;;;12.40;99.90;;;;;;5136601;27;20445;-72
2022/11/01 04:33:30;;;;;;;26.23;14.70;;;12.40;99.90;;;;;;5136508;27;20167;-72
2022/11/01 04:35:56;;;;;;;32.50;15.23;;;12.40;99.90;;;;;;5117971;27;20502;-72
2022/11/01 04:38:21;;;;;;;34.47;17.77;;;12.30;99.90;;;;;;5136387;27;20171;-75
2022/11/01 04:40:47;;;;;;;31.50;14.50;;;12.40;99.90;;;;;;5136449;27;20520;-75
2022/11/01 04:43:14;;;;;;;33.20;16.10;;;12.40;99.90;;;;;;5136241;27;20171;-72
2022/11/01 04:45:39;;;;;;;34.80;14.60;;;12.40;99.90;;;;;;5136081;27;20443;-75
2022/11/01 04:48:15;;;;;;;34.87;15.80;;;12.40;99.90;;;;;;5117755;27;20411;-72
2022/11/01 04:50:42;;;;;;;32.13;15.00;;;12.40;99.90;;;;;;5136100;27;20298;-72
2022/11/01 04:53:08;;;;;;;27.50;13.60;;;12.40;99.90;;;;;;5117699;27;20482;-71
2022/11/01 04:55:34;;;;;;;31.50;16.00;;;12.40;99.90;;;;;;5117429;27;20479;-72
2022/11/01 04:58:00;;;;;;;36.83;16.13;;;12.30;99.90;;;;;;5136077;27;20764;-74
2022/11/01 05:00:26;;;;;;;40.17;17.63;;;12.30;99.90;;;;;;5135962;27;20431;-71
2022/11/01 05:03:00;;;;;;;31.20;16.90;;;12.30;99.90;;;;;;5117509;27;20179;-75
2022/11/01 05:05:25;;;;;;;31.73;15.17;;;12.30;99.90;;;;;;5135830;27;20541;-75
2022/11/01 05:07:59;;;;;;;35.43;17.57;;;12.30;99.90;;;;;;5116881;28;20492;-72
2022/11/01 05:10:24;;;;;;;32.80;15.20;;;12.30;99.90;;;;;;5117094;27;20234;-75
2022/11/01 05:12:50;;;;;;;31.83;15.37;;;12.30;99.90;;;;;;5117346;27;20419;-73
2022/11/01 05:15:15;;;;;;;37.00;15.57;;;12.30;99.90;;;;;;5117136;27;20221;-72
2022/11/01 05:17:41;;;;;;;29.80;15.03;;;12.40;99.90;;;;;;5135620;27;20628;-74
2022/11/01 05:20:07;;;;;;;32.23;13.93;;;12.30;99.90;;;;;;5135402;27;20251;-75
2022/11/01 05:22:33;;;;;;;29.70;13.83;;;12.30;99.90;;;;;;5135598;27;20568;-72
2022/11/01 05:24:59;;;;;;;34.10;15.93;;;12.30;99.90;;;;;;5135176;27;20430;-72
2022/11/01 05:27:24;;;;;;;30.77;16.30;;;12.20;99.90;;;;;;5117206;27;20584;-75
2022/11/01 05:29:50;;;;;;;27.70;14.00;;;12.20;99.90;;;;;;5116865;27;20473;-75
2022/11/01 05:32:16;;;;;;;26.23;12.97;;;12.20;99.90;;;;;;5117258;27;20179;-75
2022/11/01 05:34:42;;;;;;;25.87;13.47;;;12.20;99.90;;;;;;5116888;27;20187;-75
2022/11/01 05:37:08;;;;;;;23.67;13.60;;;12.10;99.90;;;;;;5117119;27;20450;-75
2022/11/01 05:39:34;;;;;;;29.53;14.43;;;12.10;99.90;;;;;;5116849;27;20218;-75
2022/11/01 05:41:59;;;;;;;34.70;17.00;;;12.10;99.90;;;;;;5135569;27;20980;-76
2022/11/01 05:44:25;;;;;;;32.63;15.00;;;12.10;99.90;;;;;;5116760;27;20191;-72
2022/11/01 05:46:51;;;;;;;33.80;13.87;;;12.10;99.90;;;;;;5116941;27;20649;-71
2022/11/01 05:49:17;;;;;;;29.43;15.13;;;12.10;99.90;;;;;;5116494;27;20474;-72
2022/11/01 05:51:42;;;;;;;27.77;14.30;;;12.10;99.90;;;;;;5135386;27;20201;-72
2022/11/01 05:54:08;;;;;;;29.70;13.90;;;12.10;99.90;;;;;;5134972;27;20227;-75
2022/11/01 05:56:34;;;;;;;31.23;14.63;;;12.10;99.90;;;;;;5116723;27;20235;-75
2022/11/01 05:58:59;;;;;;;36.17;15.97;;;12.10;99.90;;;;;;5116586;27;20431;-71
2022/11/01 06:01:25;;;;;;;29.00;14.07;;;12.10;99.90;;;;;;5116431;27;20204;-75
2022/11/01 06:03:51;;;;;;;24.93;13.47;;;12.10;99.90;;;;;;5134889;27;20185;-72
2022/11/01 06:06:16;;;;;;;31.03;14.10;;;12.10;99.90;;;;;;5116228;27;20206;-72
2022/11/01 06:08:42;;;;;;;27.43;13.10;;;12.10;99.90;;;;;;5134788;27;20579;-72
2022/11/01 06:11:08;;;;;;;27.63;13.40;;;12.00;99.90;;;;;;5116240;28;20205;-75
2022/11/01 06:13:34;;;;;;;30.50;13.53;;;11.90;99.90;;;;;;5116372;27;20568;-71
2022/11/01 06:16:04;;;;;;;27.10;13.50;;;11.90;99.90;;;;;;5116300;27;20461;-74
2022/11/01 06:18:30;;;;;;;27.05;13.98;;;11.80;99.90;;;;;;5134729;28;20601;-72
2022/11/01 06:20:58;;;;;;;28.30;14.03;;;11.70;99.90;;;;;;5116104;28;20286;-71
2022/11/01 06:23:23;;;;;;;30.20;14.88;;;11.70;99.90;;;;;;5116508;28;20182;-72
2022/11/01 06:25:49;;;;;;;33.57;14.10;;;11.70;99.90;;;;;;5116221;28;20588;-75
2022/11/01 06:28:15;;;;;;;30.10;13.17;;;11.70;99.90;;;;;;5134477;28;20175;-74
2022/11/01 06:30:42;;;;;;;29.07;14.03;;;11.80;99.90;;;;;;5116026;28;20195;-71
2022/11/01 06:33:08;;;;;;;29.17;13.43;;;11.80;99.90;;;;;;5134473;28;20814;-71
2022/11/01 06:35:34;;;;;;;25.30;12.70;;;11.70;99.90;;;;;;5134494;28;20480;-73
2022/11/01 06:38:02;;;;;;;23.03;12.30;;;11.70;99.90;;;;;;5134545;28;20733;-74
2022/11/01 06:40:27;;;;;;;29.97;12.90;;;11.60;99.90;;;;;;5115960;28;20438;-75
2022/11/01 06:42:59;;;;;;;22.40;13.23;;;11.60;99.90;;;;;;5134516;28;20407;-74
2022/11/01 06:45:25;;;;;;;30.23;14.80;;;11.60;99.90;;;;;;5115958;28;20205;-71
2022/11/01 06:47:51;;;;;;;25.73;11.63;;;11.60;99.90;;;;;;5134423;28;20400;-75
2022/11/01 06:50:16;;;;;;;29.00;11.20;;;11.50;99.90;;;;;;5134183;28;20213;-72
2022/11/01 06:52:42;;;;;;;25.83;13.27;;;11.50;99.90;;;;;;5134385;28;20167;-71
2022/11/01 06:55:08;;;;;;;25.90;12.97;;;11.40;99.90;;;;;;5115780;28;20191;-72
2022/11/01 06:57:33;;;;;;;31.73;13.67;;;11.40;99.90;;;;;;5115911;28;20212;-72
2022/11/01 06:59:59;;;;;;;26.53;13.23;;;11.40;99.90;;;;;;5134352;28;20206;-75
2022/11/01 07:02:24;;;;;;;27.03;14.07;;;11.40;99.90;;;;;;5134721;28;20182;-71
2022/11/01 07:04:50;;;;;;;22.27;13.03;;;11.30;99.90;;;;;;5134233;28;20191;-75
2022/11/01 07:07:16;;;;;;;25.50;13.00;;;11.30;99.90;;;;;;5116049;28;20183;-72
2022/11/01 07:09:42;;;;;;;22.90;12.37;;;11.40;99.90;;;;;;5115634;28;20246;-75
2022/11/01 07:12:07;;;;;;;28.13;15.10;;;11.40;99.90;;;;;;5134560;28;20422;-75
2022/11/01 07:14:33;;;;;;;37.60;14.10;;;11.40;99.90;;;;;;5134121;28;20191;-75
2022/11/01 07:16:58;;;;;;;27.60;15.13;;;11.40;99.90;;;;;;5134508;28;20179;-72
2022/11/01 07:19:24;;;;;;;22.17;13.10;;;11.40;99.90;;;;;;5115794;28;20557;-71
2022/11/01 07:21:50;;;;;;;27.60;13.83;;;11.50;99.90;;;;;;5134127;28;20179;-72
2022/11/01 07:24:15;;;;;;;25.33;14.40;;;11.50;99.90;;;;;;5115590;28;20544;-72
2022/11/01 07:26:41;;;;;;;22.97;12.90;;;11.60;99.90;;;;;;5115832;28;20239;-76
2022/11/01 07:29:07;;;;;;;19.90;11.40;;;11.60;99.90;;;;;;5133904;28;20221;-75
2022/11/01 07:31:32;;;;;;;22.43;12.57;;;11.50;99.90;;;;;;5135093;27;20254;-71
2022/11/01 07:33:58;;;;;;;23.93;12.50;;;11.50;99.90;;;;;;5119355;27;20262;-73
2022/11/01 07:36:24;;;;;;;22.37;11.37;;;11.50;99.90;;;;;;5119198;27;20578;-72
2022/11/01 07:38:50;;;;;;;26.23;13.10;;;11.50;99.90;;;;;;5119251;27;20472;-72
2022/11/01 07:41:15;;;;;;;26.63;13.70;;;11.50;99.90;;;;;;5137766;27;20199;-72
2022/11/01 07:43:41;;;;;;;28.57;13.97;;;11.50;99.90;;;;;;5137656;27;20374;-75
2022/11/01 07:46:07;;;;;;;26.63;14.27;;;11.50;99.90;;;;;;5137624;27;20655;-75
2022/11/01 07:48:35;;;;;;;22.10;12.27;;;11.50;99.90;;;;;;5137138;27;20167;-75
2022/11/01 07:51:02;;;;;;;24.20;11.80;;;11.40;99.90;;;;;;5118688;27;20285;-72
2022/11/01 07:53:27;;;;;;;29.00;14.37;;;11.40;99.90;;;;;;5118880;27;20407;-75
2022/11/01 07:55:53;;;;;;;32.23;15.03;;;11.40;99.90;;;;;;5137339;27;20453;-71
2022/11/01 07:58:19;;;;;;;30.53;15.70;;;11.30;99.90;;;;;;5137207;27;20170;-72
2022/11/01 08:00:45;;;;;;;26.10;14.03;;;11.30;99.90;;;;;;5118706;27;20202;-74
2022/11/01 08:03:13;;;;;;;29.60;15.33;;;11.20;99.90;;;;;;5118703;27;20182;-75
2022/11/01 08:05:40;;;;;;;31.00;16.70;;;11.20;99.90;;;;;;5118574;27;20439;-72
2022/11/01 08:08:06;;;;;;;31.63;16.80;;;11.20;99.90;;;;;;5118629;27;20984;-75
2022/11/01 08:10:32;;;;;;;32.90;17.27;;;11.30;99.90;;;;;;5136870;27;20573;-75
2022/11/01 08:13:23;;;;;;;34.43;17.10;;;11.30;99.90;;;;;;5118570;27;20956;-72
2022/11/01 08:15:50;;;;;;;40.88;19.90;;;11.30;99.90;;;;;;5136162;27;20451;-71
2022/11/01 08:18:17;;;;;;;33.08;17.92;;;11.30;99.90;;;;;;5118309;27;20175;-71
2022/11/01 08:20:43;;;;;;;36.93;17.63;;;11.30;99.90;;;;;;5136682;27;20207;-76
2022/11/01 08:23:10;;;;;;;32.43;18.67;;;11.30;99.90;;;;;;5118285;27;20410;-75
2022/11/01 08:25:36;;;;;;;36.50;18.57;;;11.30;99.90;;;;;;5136536;27;20868;-71
2022/11/01 08:28:04;;;;;;;32.07;19.10;;;11.40;99.90;;;;;;5118144;27;20491;-71
2022/11/01 08:30:30;;;;;;;40.83;21.53;;;11.40;99.90;;;;;;5136337;27;20474;-71
2022/11/01 08:33:00;;;;;;;37.33;17.57;;;11.40;99.90;;;;;;5136542;27;20399;-75
2022/11/01 08:35:26;;;;;;;31.90;17.00;;;11.50;99.90;;;;;;5136547;27;20501;-71
2022/11/01 08:37:53;;;;;;;41.07;19.00;;;11.50;99.90;;;;;;5136450;27;20540;-72
2022/11/01 08:40:19;;;;;;;36.73;19.57;;;11.50;99.90;;;;;;5136254;27;20471;-75
2022/11/01 08:42:46;;;;;;;41.30;21.10;;;11.50;99.90;;;;;;5135507;27;20830;-74
2022/11/01 08:45:12;;;;;;;29.40;17.33;;;11.60;99.90;;;;;;5135838;27;20442;-75
2022/11/01 08:47:39;;;;;;;34.03;19.83;;;11.60;99.90;;;;;;5136378;27;20170;-74
2022/11/01 08:50:06;;;;;;;42.27;21.57;;;11.50;99.90;;;;;;5117447;27;20842;-75
2022/11/01 08:52:32;;;;;;;39.08;21.25;;;11.50;99.90;;;;;;5117777;27;20763;-75
2022/11/01 08:54:58;;;;;;;31.90;18.53;;;11.50;99.90;;;;;;5135773;27;20205;-76
2022/11/01 08:57:23;;;;;;;42.63;20.80;;;11.60;99.90;;;;;;5136532;27;20205;-75
2022/11/01 08:59:49;;;;;;;40.50;21.00;;;11.50;99.90;;;;;;5117577;27;20201;-72
2022/11/01 09:02:14;;;;;;;39.43;21.10;;;11.50;99.90;;;;;;5117853;27;20584;-71
2022/11/01 09:04:41;;;;;;;41.63;20.70;;;11.50;99.90;;;;;;5135882;27;20211;-75
2022/11/01 09:07:06;;;;;;;43.50;23.00;;;11.60;99.90;;;;;;5136310;27;20458;-71
2022/11/01 09:09:32;;;;;;;47.53;22.53;;;11.60;99.90;;;;;;5135677;27;20487;-72
2022/11/01 09:11:58;;;;;;;42.73;22.10;;;11.60;99.90;;;;;;5136309;27;20179;-75
2022/11/01 09:14:25;;;;;;;48.80;24.67;;;11.60;99.90;;;;;;5117285;27;20206;-75
2022/11/01 09:16:51;;;;;;;57.27;28.40;;;11.60;99.90;;;;;;5136132;27;20183;-71
2022/11/01 09:19:17;;;;;;;53.63;26.90;;;11.70;99.90;;;;;;5117125;27;20411;-72
2022/11/01 09:21:43;;;;;;;57.00;28.47;;;11.70;99.90;;;;;;5117060;27;20187;-75
2022/11/01 09:24:13;;;;;;;53.73;27.70;;;11.70;99.90;;;;;;5117079;27;20924;-72
2022/11/01 09:26:39;;;;;;;46.23;23.87;;;11.80;99.90;;;;;;5135781;27;20496;-75
2022/11/01 09:29:05;;;;;;;56.60;27.60;;;11.80;99.90;;;;;;5116883;27;21039;-71
2022/11/01 09:31:32;;;;;;;58.90;28.67;;;11.80;99.90;;;;;;5135738;27;20638;-76
2022/11/01 09:33:59;;;;;;;59.10;26.70;;;11.90;99.90;;;;;;5135317;27;20989;-75
2022/11/01 09:36:26;;;;;;;56.30;28.73;;;11.90;99.90;;;;;;5135467;27;20774;-75
2022/11/01 09:38:52;;;;;;;69.80;31.00;;;11.90;99.90;;;;;;5116874;27;20443;-75
2022/11/01 09:41:34;;;;;;;73.20;35.50;;;11.90;99.90;;;;;;5135336;27;20507;-75
2022/11/01 09:44:02;;;;;;;61.03;32.30;;;12.00;99.90;;;;;;5116695;27;20427;-72
2022/11/01 09:46:33;;;;;;;70.60;33.20;;;12.10;99.90;;;;;;5116874;27;20836;-71
2022/11/01 09:49:02;;;;;;;68.17;33.80;;;12.10;99.90;;;;;;5135439;27;20554;-72
2022/11/01 09:51:31;;;;;;;78.60;38.03;;;12.20;99.90;;;;;;5116774;27;20414;-75
2022/11/01 09:54:00;;;;;;;74.40;39.93;;;12.20;99.90;;;;;;5116450;27;20431;-75
2022/11/01 09:56:43;;;;;;;71.60;35.17;;;12.30;99.90;;;;;;5116458;28;20476;-75
2022/11/01 09:59:34;;;;;;;68.80;35.63;;;12.40;99.90;;;;;;5134950;27;20832;-72
2022/11/01 10:02:33;;;;;;;81.10;40.47;;;12.40;99.90;;;;;;5135502;27;20527;-75
2022/11/01 10:05:16;;;;;;;76.07;40.70;;;12.40;99.90;;;;;;5116899;27;20458;-71
2022/11/01 10:08:10;;;;;;;87.97;43.10;;;12.50;99.90;;;;;;5134883;27;20802;-72
2022/11/01 10:11:00;;;;;;;80.73;37.80;;;12.50;99.90;;;;;;5134766;27;20466;-72
2022/11/01 10:13:54;;;;;;;85.70;40.77;;;12.50;99.90;;;;;;5116363;28;20954;-71
2022/11/01 10:16:40;;;;;;;82.87;42.07;;;12.50;99.90;;;;;;5116325;27;20447;-75
2022/11/01 10:19:17;;;;;;;87.23;43.40;;;12.50;99.90;;;;;;5134606;27;20382;-75
2022/11/01 10:22:01;;;;;;;87.30;41.33;;;12.60;99.90;;;;;;5116363;28;20434;-75
2022/11/01 10:24:42;;;;;;;85.37;41.43;;;12.60;99.90;;;;;;5134610;28;20973;-75
2022/11/01 10:27:28;;;;;;;78.73;41.87;;;12.70;99.90;;;;;;5135119;28;20455;-71
2022/11/01 10:29:57;;;;;;;87.00;41.47;;;12.70;99.90;;;;;;5116126;28;21022;-75
2022/11/01 10:32:53;;;;;;;84.70;43.63;;;12.80;99.90;;;;;;5116021;28;20911;-72
2022/11/01 10:35:27;;;;;;;89.10;43.67;;;12.90;99.90;;;;;;5134345;28;20420;-72
2022/11/01 10:38:16;;;;;;;75.47;40.57;;;12.90;99.90;;;;;;5116171;28;20434;-75
2022/11/01 10:41:00;;;;;;;80.63;39.57;;;13.00;99.90;;;;;;5116065;28;20435;-72
2022/11/01 10:43:26;;;;;;;77.27;40.73;;;13.10;99.90;;;;;;5116161;28;20439;-75
2022/11/01 10:45:56;;;;;;;72.10;41.30;;;13.20;99.90;;;;;;5134445;28;20981;-76
2022/11/01 10:48:35;;;;;;;77.10;40.23;;;13.20;99.90;;;;;;5134276;28;20411;-71
2022/11/01 10:51:05;;;;;;;83.20;38.97;;;13.20;99.90;;;;;;5115874;28;20447;-75
2022/11/01 10:53:47;;;;;;;78.97;40.80;;;13.30;99.90;;;;;;5134408;28;20438;-75
2022/11/01 10:56:21;;;;;;;77.30;38.20;;;13.40;99.90;;;;;;5134491;28;20769;-72
2022/11/01 10:58:55;;;;;;;77.33;38.97;;;13.50;99.90;;;;;;5116188;28;20424;-75
2022/11/01 11:01:24;;;;;;;74.90;39.30;;;13.50;99.90;;;;;;5115784;28;21025;-72
2022/11/01 11:03:51;;;;;;;74.73;40.33;;;13.50;99.90;;;;;;5134295;28;20953;-75
2022/11/01 11:06:17;;;;;;;83.50;41.70;;;13.60;99.90;;;;;;5116129;27;20450;-75
2022/11/01 11:08:48;;;;;;;84.50;41.17;;;13.60;99.90;;;;;;5138154;27;21004;-73
2022/11/01 11:11:16;;;;;;;84.10;41.90;;;13.70;99.90;;;;;;5137936;27;20462;-72
2022/11/01 11:13:51;;;;;;;85.70;41.90;;;13.80;99.90;;;;;;5119765;27;20411;-75
2022/11/01 11:16:45;;;;;;;78.10;40.63;;;13.90;99.90;;;;;;5119689;27;20438;-72
2022/11/01 11:19:15;;;;;;;82.60;37.10;;;14.00;99.90;;;;;;5137985;27;20520;-72
2022/11/01 11:21:43;;;;;;;90.47;44.53;;;14.10;99.90;;;;;;5119618;27;20438;-72
2022/11/01 11:24:21;;;;;;;77.90;42.20;;;14.20;99.90;;;;;;5137845;27;20407;-75
2022/11/01 11:26:50;;;;;;;97.83;51.33;;;14.20;99.90;;;;;;5119503;27;20485;-75
2022/11/01 11:29:47;;;;;;;81.00;43.33;;;14.20;99.90;;;;;;5137565;27;20463;-72
2022/11/01 11:32:28;;;;;;;78.83;39.93;;;14.30;99.90;;;;;;5138225;27;20502;-75
2022/11/01 11:34:58;;;;;;;79.97;43.67;;;14.40;99.90;;;;;;5137678;27;20546;-76
2022/11/01 11:37:30;;;;;;;79.30;41.00;;;14.40;99.90;;;;;;5119377;27;20427;-75
2022/11/01 11:40:05;;;;;;;82.40;44.77;;;14.50;99.90;;;;;;5119096;27;20453;-72
2022/11/01 11:42:32;;;;;;;73.37;40.40;;;14.50;99.90;;;;;;5119107;27;20403;-71
2022/11/01 11:45:26;;;;;;;80.57;41.80;;;14.60;99.90;;;;;;5119000;27;20431;-72
2022/11/01 11:47:53;;;;;;;85.37;46.57;;;14.60;99.90;;;;;;5119072;27;20459;-72
2022/11/01 11:50:18;;;;;;;91.30;50.43;;;14.70;99.90;;;;;;5118821;27;20470;-72
2022/11/01 11:52:49;;;;;;;84.07;43.80;;;14.70;99.90;;;;;;5118957;27;20421;-71
2022/11/01 11:55:38;;;;;;;75.83;39.93;;;14.80;99.90;;;;;;5137204;27;20183;-75
2022/11/01 11:58:13;;;;;;;76.50;41.03;;;14.90;99.90;;;;;;5118819;27;20411;-72
2022/11/01 12:00:44;;;;;;;80.23;41.90;;;15.00;99.90;;;;;;5118805;27;20434;-75
2022/11/01 12:03:13;;;;;;;73.27;39.90;;;15.00;99.90;;;;;;5118713;27;20410;-72
2022/11/01 12:05:58;;;;;;;73.60;39.40;;;15.00;99.90;;;;;;5118445;27;20447;-72
2022/11/01 12:08:33;;;;;;;69.00;40.90;;;15.10;99.90;;;;;;5118540;27;20407;-72
2022/11/01 12:10:59;;;;;;;73.50;41.33;;;15.20;99.90;;;;;;5118509;27;20974;-75
2022/11/01 12:13:36;;;;;;;77.43;40.87;;;15.20;99.90;;;;;;5136916;27;20413;-74
2022/11/01 12:16:18;;;;;;;79.33;42.37;;;15.30;99.90;;;;;;5137013;27;20234;-76
2022/11/01 12:18:55;;;;;;;73.80;40.03;;;15.40;99.90;;;;;;5136662;27;20714;-76
2022/11/01 12:21:35;;;;;;;74.47;40.00;;;15.40;99.90;;;;;;5137073;27;20439;-75
2022/11/01 12:24:04;;;;;;;71.40;39.27;;;15.50;99.90;;;;;;5118421;27;20411;-75
2022/11/01 12:26:33;;;;;;;80.50;42.53;;;15.50;99.90;;;;;;5118389;27;20471;-75
2022/11/01 12:29:04;;;;;;;81.13;44.47;;;15.60;99.90;;;;;;5136694;27;20458;-75
2022/11/01 12:31:30;;;;;;;76.60;42.13;;;15.70;99.90;;;;;;5118318;27;20423;-72
2022/11/01 12:34:05;;;;;;;69.80;39.70;;;15.70;99.90;;;;;;5136524;27;20405;-75
2022/11/01 12:36:42;;;;;;;72.30;39.70;;;15.80;99.90;;;;;;5136917;27;20414;-75
2022/11/01 12:39:15;;;;;;;70.50;39.37;;;15.90;99.90;;;;;;5136406;27;20386;-75
2022/11/01 12:41:51;;;;;;;68.80;39.40;;;15.90;99.90;;;;;;5118224;27;20446;-75
2022/11/01 12:44:34;;;;;;;67.63;38.83;;;16.00;99.90;;;;;;5117883;27;20919;-75
2022/11/01 12:47:22;;;;;;;61.70;37.30;;;16.10;99.90;;;;;;5136215;27;20423;-72
2022/11/01 12:49:50;;;;;;;68.80;40.37;;;16.20;99.90;;;;;;5117678;27;20466;-76
2022/11/01 12:52:28;;;;;;;64.00;38.97;;;16.20;99.90;;;;;;5136764;27;20423;-76